Am Tubarao — A8ZA9 — position and weather

sailwx.info

Track history (hours):
 
Tides and Currents Weather Stations Pressure Air Temp Water Temp Dewpoint Dewpoint Depression Visibility Wind Speed Wind Dir Waves Ship Positions

Am Tubarao

Last reported at 2015-May-15 22:28 UTC. Time now 2015-May-23 14:57 UTC.
Position N 50°29' W 000°01'.

Length 230 m; draft 8 m.

Type: Cargo ship. MMSI: 636015171.

Date/timePositionNaut miles runAvg speedWind from/ knotsBaromVisibWave heightAir tempDewpointWater temp
2015-May-15 22:28N 50°29' W 000°01'20 8.8
2015-May-15 20:14N 50°34' E 000°29'5 7.7
2015-May-15 19:33N 50°36' E 000°37'8 7.9
2015-May-15 18:33N 50°40' E 000°47'9 9.2
2015-May-15 17:33N 50°45' E 000°59'1110.9
2015-May-15 16:33N 50°52' E 001°13'1212.5
2015-May-15 15:33N 51°01' E 001°27'1010.3
2015-May-15 14:33N 51°05' E 001°42'1111.4
2015-May-15 13:34N 51°03' E 001°59'13 2.9
2015-May-15 09:13N 51°03' E 002°19'0 0.0
2015-May-15 07:15N 51°03' E 002°19'0 0.0
2015-May-15 05:04N 51°03' E 002°19'0 0.0
2015-May-15 04:28N 51°03' E 002°19'0 0.0
2015-May-15 03:31N 51°03' E 002°19'0 0.0
2015-May-15 02:07N 51°03' E 002°19'0 0.0
2015-May-15 01:28N 51°03' E 002°19'0 0.0
2015-May-15 00:28N 51°03' E 002°19'0 0.0
2015-May-14 13:10N 51°03' E 002°19'0 0.0
2015-May-14 12:19N 51°03' E 002°19'0 0.0
2015-May-14 06:16N 51°03' E 002°19'0 0.0
2015-May-14 05:19N 51°03' E 002°19'0 0.0
2015-May-14 03:33N 51°03' E 002°19'0 0.0
2015-May-14 02:12N 51°03' E 002°19'0 0.0
2015-May-14 01:33N 51°03' E 002°19'0 0.0
2015-May-14 00:33N 51°03' E 002°19'0 0.0
2015-May-13 23:30N 51°03' E 002°19'0 0.0
2015-May-13 22:33N 51°03' E 002°19'0 0.0
2015-May-13 21:33N 51°03' E 002°19'0 0.0
2015-May-13 20:33N 51°03' E 002°19'0 0.0
2015-May-13 19:21N 51°03' E 002°19'0 0.0
2015-May-13 18:33N 51°03' E 002°19'0 0.0
2015-May-13 17:30N 51°03' E 002°19'0 0.0
2015-May-13 16:33N 51°03' E 002°19'0 0.0
2015-May-13 15:33N 51°03' E 002°19'0 0.0
2015-May-13 14:33N 51°03' E 002°19'0 0.0
2015-May-13 13:33N 51°03' E 002°19'0 0.0
2015-May-13 12:18N 51°03' E 002°19'0 0.0
2015-May-13 11:33N 51°03' E 002°19'0 0.0
2015-May-13 10:33N 51°03' E 002°19'0 0.0
2015-May-13 09:33N 51°03' E 002°19'0 0.0
2015-May-13 08:30N 51°03' E 002°19'0 0.0
2015-May-13 07:30N 51°03' E 002°19'0 0.0
2015-May-13 06:34N 51°03' E 002°19'0 0.0
2015-May-13 05:21N 51°03' E 002°19'0 0.0
2015-May-13 04:33N 51°03' E 002°19'0 0.0
2015-May-13 03:33N 51°03' E 002°19'0 0.0
2015-May-13 02:33N 51°03' E 002°19'0 0.0
2015-May-13 01:33N 51°03' E 002°19'0 0.0
2015-May-13 00:33N 51°03' E 002°19'0 0.0
2015-May-12 23:33N 51°03' E 002°19'0 0.0
2015-May-12 22:33N 51°03' E 002°19'0 0.0
2015-May-12 21:33N 51°03' E 002°19'0 0.0
2015-May-12 20:33N 51°03' E 002°19'0 0.0
2015-May-12 19:27N 51°03' E 002°19'0 0.0
2015-May-12 18:24N 51°03' E 002°19'0 0.0
2015-May-12 17:27N 51°03' E 002°19'0 0.0
2015-May-12 16:30N 51°03' E 002°19'0 0.0
2015-May-12 15:21N 51°03' E 002°19'0 0.0
2015-May-12 14:30N 51°03' E 002°19'0 0.0
2015-May-12 13:34N 51°03' E 002°19'0 0.0
2015-May-12 12:33N 51°03' E 002°19'0 0.0
2015-May-12 11:30N 51°03' E 002°19'0 0.0
2015-May-12 10:33N 51°03' E 002°19'0 0.0
2015-May-12 09:30N 51°03' E 002°19'0 0.0
2015-May-12 08:30N 51°03' E 002°19'0 0.0
2015-May-12 07:33N 51°03' E 002°19'0 0.0
2015-May-12 06:33N 51°03' E 002°19'0 0.0
2015-May-12 04:33N 51°03' E 002°19'0 0.0
2015-May-12 03:33N 51°03' E 002°19'0 0.0
2015-May-12 02:33N 51°03' E 002°19'0 0.0
2015-May-12 01:33N 51°03' E 002°19'0 0.0
2015-May-12 00:30N 51°03' E 002°19'0 0.0
2015-May-11 22:12N 51°03' E 002°19'0 0.0
2015-May-11 21:30N 51°03' E 002°19'0 0.0
2015-May-11 20:21N 51°03' E 002°19'1 0.8
2015-May-11 19:33N 51°03' E 002°20'1 0.6
2015-May-11 18:34N 51°04' E 002°21'8 8.3
2015-May-11 17:34N 51°03' E 002°08'1211.8
2015-May-11 16:33N 51°03' E 001°49'1 0.8
2015-May-11 15:32N 51°03' E 001°48'0 0.2
2015-May-11 14:32N 51°03' E 001°48'0 0.1
2015-May-11 13:32N 51°03' E 001°47'0 0.1
2015-May-11 12:32N 51°03' E 001°47'2 2.3
2015-May-11 11:34N 51°02' E 001°44'5 5.5
2015-May-11 10:33N 50°59' E 001°37'7 6.9
2015-May-11 09:33N 50°54' E 001°29'11 9.3
2015-May-11 08:21N 50°44' E 001°22'  
Track history (hours):
 
Tides and Currents Weather Stations Pressure Air Temp Water Temp Dewpoint Dewpoint Depression Visibility Wind Speed Wind Dir Waves Ship Positions

Am Tubarao

Last reported at 2015-May-15 22:28 UTC. Time now 2015-May-23 14:57 UTC.
Position N 50°29' W 000°01'.

Length 230 m; draft 8 m.

Type: Cargo ship. MMSI: 636015171.

Date/timePositionNaut miles runAvg speedWind from/ knotsBaromVisibWave heightAir tempDewpointWater temp
2015-May-15 22:28N 50°29' W 000°01'20 8.8
2015-May-15 20:14N 50°34' E 000°29'5 7.7
2015-May-15 19:33N 50°36' E 000°37'8 7.9
2015-May-15 18:33N 50°40' E 000°47'9 9.2
2015-May-15 17:33N 50°45' E 000°59'1110.9
2015-May-15 16:33N 50°52' E 001°13'1212.5
2015-May-15 15:33N 51°01' E 001°27'1010.3
2015-May-15 14:33N 51°05' E 001°42'1111.4
2015-May-15 13:34N 51°03' E 001°59'13 2.9
2015-May-15 09:13N 51°03' E 002°19'0 0.0
2015-May-15 07:15N 51°03' E 002°19'0 0.0
2015-May-15 05:04N 51°03' E 002°19'0 0.0
2015-May-15 04:28N 51°03' E 002°19'0 0.0
2015-May-15 03:31N 51°03' E 002°19'0 0.0
2015-May-15 02:07N 51°03' E 002°19'0 0.0
2015-May-15 01:28N 51°03' E 002°19'0 0.0
2015-May-15 00:28N 51°03' E 002°19'0 0.0
2015-May-14 13:10N 51°03' E 002°19'0 0.0
2015-May-14 12:19N 51°03' E 002°19'0 0.0
2015-May-14 06:16N 51°03' E 002°19'0 0.0
2015-May-14 05:19N 51°03' E 002°19'0 0.0
2015-May-14 03:33N 51°03' E 002°19'0 0.0
2015-May-14 02:12N 51°03' E 002°19'0 0.0
2015-May-14 01:33N 51°03' E 002°19'0 0.0
2015-May-14 00:33N 51°03' E 002°19'0 0.0
2015-May-13 23:30N 51°03' E 002°19'0 0.0
2015-May-13 22:33N 51°03' E 002°19'0 0.0
2015-May-13 21:33N 51°03' E 002°19'0 0.0
2015-May-13 20:33N 51°03' E 002°19'0 0.0
2015-May-13 19:21N 51°03' E 002°19'0 0.0
2015-May-13 18:33N 51°03' E 002°19'0 0.0
2015-May-13 17:30N 51°03' E 002°19'0 0.0
2015-May-13 16:33N 51°03' E 002°19'0 0.0
2015-May-13 15:33N 51°03' E 002°19'0 0.0
2015-May-13 14:33N 51°03' E 002°19'0 0.0
2015-May-13 13:33N 51°03' E 002°19'0 0.0
2015-May-13 12:18N 51°03' E 002°19'0 0.0
2015-May-13 11:33N 51°03' E 002°19'0 0.0
2015-May-13 10:33N 51°03' E 002°19'0 0.0
2015-May-13 09:33N 51°03' E 002°19'0 0.0
2015-May-13 08:30N 51°03' E 002°19'0 0.0
2015-May-13 07:30N 51°03' E 002°19'0 0.0
2015-May-13 06:34N 51°03' E 002°19'0 0.0
2015-May-13 05:21N 51°03' E 002°19'0 0.0
2015-May-13 04:33N 51°03' E 002°19'0 0.0
2015-May-13 03:33N 51°03' E 002°19'0 0.0
2015-May-13 02:33N 51°03' E 002°19'0 0.0
2015-May-13 01:33N 51°03' E 002°19'0 0.0
2015-May-13 00:33N 51°03' E 002°19'0 0.0
2015-May-12 23:33N 51°03' E 002°19'0 0.0
2015-May-12 22:33N 51°03' E 002°19'0 0.0
2015-May-12 21:33N 51°03' E 002°19'0 0.0
2015-May-12 20:33N 51°03' E 002°19'0 0.0
2015-May-12 19:27N 51°03' E 002°19'0 0.0
2015-May-12 18:24N 51°03' E 002°19'0 0.0
2015-May-12 17:27N 51°03' E 002°19'0 0.0
2015-May-12 16:30N 51°03' E 002°19'0 0.0
2015-May-12 15:21N 51°03' E 002°19'0 0.0
2015-May-12 14:30N 51°03' E 002°19'0 0.0
2015-May-12 13:34N 51°03' E 002°19'0 0.0
2015-May-12 12:33N 51°03' E 002°19'0 0.0
2015-May-12 11:30N 51°03' E 002°19'0 0.0
2015-May-12 10:33N 51°03' E 002°19'0 0.0
2015-May-12 09:30N 51°03' E 002°19'0 0.0
2015-May-12 08:30N 51°03' E 002°19'0 0.0
2015-May-12 07:33N 51°03' E 002°19'0 0.0
2015-May-12 06:33N 51°03' E 002°19'0 0.0
2015-May-12 04:33N 51°03' E 002°19'0 0.0
2015-May-12 03:33N 51°03' E 002°19'0 0.0
2015-May-12 02:33N 51°03' E 002°19'0 0.0
2015-May-12 01:33N 51°03' E 002°19'0 0.0
2015-May-12 00:30N 51°03' E 002°19'0 0.0
2015-May-11 22:12N 51°03' E 002°19'0 0.0
2015-May-11 21:30N 51°03' E 002°19'0 0.0
2015-May-11 20:21N 51°03' E 002°19'1 0.8
2015-May-11 19:33N 51°03' E 002°20'1 0.6
2015-May-11 18:34N 51°04' E 002°21'8 8.3
2015-May-11 17:34N 51°03' E 002°08'1211.8
2015-May-11 16:33N 51°03' E 001°49'1 0.8
2015-May-11 15:32N 51°03' E 001°48'0 0.2
2015-May-11 14:32N 51°03' E 001°48'0 0.1
2015-May-11 13:32N 51°03' E 001°47'0 0.1
2015-May-11 12:32N 51°03' E 001°47'2 2.3
2015-May-11 11:34N 51°02' E 001°44'5 5.5
2015-May-11 10:33N 50°59' E 001°37'7 6.9
2015-May-11 09:33N 50°54' E 001°29'11 9.3
2015-May-11 08:21N 50°44' E 001°22'  

Dump ship's entire track history